Time;durP1;ratioP1;P1;durP2;ratioP2;P2;SDS_P1;SDS_P2;PMS_P1;PMS_P2;Temp;Humidity;BMP_temperature;BMP_pressure;BME280_temperature;BME280_humidity;BME280_pressure;Samples;Min_cycle;Max_cycle;Signal;HPM_P1;HPM_P2
2021/01/19 00:01:08;;;;;;;15.07;5.00;;;5.80;99.90;;;;;;5093825;28;20171;-89
2021/01/19 00:03:34;;;;;;;12.00;4.07;;;5.70;99.90;;;;;;5094418;28;20173;-87
2021/01/19 00:05:59;;;;;;;9.83;4.67;;;5.70;99.90;;;;;;5095154;28;20171;-89
2021/01/19 00:08:25;;;;;;;13.80;5.30;;;5.70;99.90;;;;;;5095775;28;20256;-88
2021/01/19 00:10:51;;;;;;;9.97;4.53;;;5.60;99.90;;;;;;5096404;28;20224;-89
2021/01/19 00:13:20;;;;;;;13.40;4.73;;;5.60;99.90;;;;;;5114833;28;20167;-87
2021/01/19 00:15:48;;;;;;;15.27;4.83;;;5.60;99.90;;;;;;5096585;28;20167;-84
2021/01/19 00:18:15;;;;;;;12.60;4.80;;;5.50;99.90;;;;;;5096509;28;20174;-84
2021/01/19 00:20:41;;;;;;;9.37;4.70;;;5.50;99.90;;;;;;5096687;28;20175;-88
2021/01/19 00:23:07;;;;;;;13.93;6.33;;;5.50;99.90;;;;;;5096246;28;20207;-87
2021/01/19 00:25:35;;;;;;;12.53;5.23;;;5.50;99.90;;;;;;5115296;28;20694;-89
2021/01/19 00:28:01;;;;;;;15.00;5.53;;;5.50;99.90;;;;;;5096509;28;20687;-89
2021/01/19 00:30:27;;;;;;;14.80;5.30;;;5.50;99.90;;;;;;5113668;28;20202;-88
2021/01/19 00:32:52;;;;;;;13.77;5.23;;;5.40;99.90;;;;;;5096153;28;20167;-84
2021/01/19 00:35:18;;;;;;;13.87;5.27;;;5.40;99.90;;;;;;5096271;28;20194;-84
2021/01/19 00:37:44;;;;;;;9.17;4.97;;;5.40;99.90;;;;;;5095835;28;20206;-84
2021/01/19 00:40:11;;;;;;;12.60;5.40;;;5.30;99.90;;;;;;5096584;28;20641;-89
2021/01/19 00:42:37;;;;;;;11.53;4.90;;;5.30;99.90;;;;;;5095945;28;20171;-89
2021/01/19 00:45:03;;;;;;;16.03;5.47;;;5.30;99.90;;;;;;5096501;28;20251;-85
2021/01/19 00:47:28;;;;;;;14.23;5.20;;;5.30;99.90;;;;;;5096250;28;20221;-89
2021/01/19 00:49:54;;;;;;;14.57;5.77;;;5.30;99.90;;;;;;5095997;28;20685;-83
2021/01/19 00:52:19;;;;;;;15.00;6.70;;;5.30;99.90;;;;;;5114173;28;20178;-88
2021/01/19 00:54:45;;;;;;;16.93;5.80;;;5.30;99.90;;;;;;5096681;28;20246;-86
2021/01/19 00:57:11;;;;;;;19.77;7.03;;;5.30;99.90;;;;;;5096243;28;20202;-90
2021/01/19 00:59:36;;;;;;;16.80;7.63;;;5.30;99.90;;;;;;5096281;28;20254;-89
2021/01/19 01:02:02;;;;;;;14.40;6.03;;;5.30;99.90;;;;;;5096118;28;20171;-86
2021/01/19 01:04:28;;;;;;;14.03;6.33;;;5.30;99.90;;;;;;5096014;28;20646;-89
2021/01/19 01:06:54;;;;;;;18.23;6.57;;;5.30;99.90;;;;;;5095588;28;20190;-86
2021/01/19 01:09:20;;;;;;;15.60;7.03;;;5.30;99.90;;;;;;5095536;28;20705;-89
2021/01/19 01:11:45;;;;;;;16.93;7.20;;;5.20;99.90;;;;;;5095100;28;20167;-83
2021/01/19 01:14:12;;;;;;;15.87;6.30;;;5.30;99.90;;;;;;5095853;28;20182;-87
2021/01/19 01:16:39;;;;;;;16.50;6.33;;;5.30;99.90;;;;;;5095989;28;20227;-89
2021/01/19 01:19:06;;;;;;;12.70;6.40;;;5.30;99.90;;;;;;5095686;28;20195;-85
2021/01/19 01:21:35;;;;;;;14.67;6.77;;;5.30;99.90;;;;;;5114218;28;20178;-86
2021/01/19 01:24:01;;;;;;;17.30;7.00;;;5.40;99.90;;;;;;5113725;28;20183;-89
2021/01/19 01:26:27;;;;;;;17.63;6.80;;;5.40;99.90;;;;;;5095438;28;20175;-87
2021/01/19 01:28:52;;;;;;;13.47;7.23;;;5.40;99.90;;;;;;5095584;28;20694;-88
2021/01/19 01:31:19;;;;;;;13.40;6.67;;;5.40;99.90;;;;;;5095775;28;20189;-88
2021/01/19 01:33:46;;;;;;;13.23;7.10;;;5.50;99.90;;;;;;5095469;28;20654;-83
2021/01/19 01:36:12;;;;;;;16.67;6.27;;;5.50;99.90;;;;;;5095606;28;20172;-88
2021/01/19 01:38:37;;;;;;;18.47;6.20;;;5.50;99.90;;;;;;5095484;28;20174;-89
2021/01/19 01:41:10;;;;;;;13.87;5.90;;;5.50;99.90;;;;;;5095490;28;20179;-88
2021/01/19 01:43:36;;;;;;;12.43;5.80;;;5.50;99.90;;;;;;5095446;28;20173;-87
2021/01/19 01:46:02;;;;;;;15.23;5.83;;;5.50;99.90;;;;;;5095631;28;20258;-84
2021/01/19 01:48:28;;;;;;;15.10;6.23;;;5.60;99.90;;;;;;5095736;28;20202;-88
2021/01/19 01:50:53;;;;;;;15.03;6.03;;;5.50;99.90;;;;;;5095723;28;20167;-83
2021/01/19 01:53:19;;;;;;;12.63;6.10;;;5.60;99.90;;;;;;5095538;28;20706;-87
2021/01/19 01:55:45;;;;;;;15.97;5.87;;;5.60;99.90;;;;;;5095273;28;20532;-86
2021/01/19 01:58:11;;;;;;;13.33;5.63;;;5.70;99.90;;;;;;5095242;28;20646;-88
2021/01/19 02:00:36;;;;;;;11.83;7.20;;;5.60;99.90;;;;;;5095773;28;20304;-86
2021/01/19 02:03:02;;;;;;;14.00;6.43;;;5.60;99.90;;;;;;5095470;28;20175;-88
2021/01/19 02:05:28;;;;;;;15.20;6.30;;;5.60;99.90;;;;;;5095652;28;20304;-90
2021/01/19 02:08:09;;;;;;;14.40;7.43;;;5.70;99.90;;;;;;5095232;28;20315;-85
2021/01/19 02:11:00;;;;;;;14.30;6.70;;;5.70;99.90;;;;;;5095470;28;20206;-86
2021/01/19 02:13:44;;;;;;;14.57;6.03;;;5.70;99.90;;;;;;5095638;28;20695;-88
2021/01/19 02:16:25;;;;;;;15.57;6.00;;;5.70;99.90;;;;;;5095901;28;20232;-89
2021/01/19 02:18:54;;;;;;;12.30;7.13;;;5.70;99.90;;;;;;5095502;28;20616;-87
2021/01/19 02:21:56;;;;;;;10.60;6.37;;;5.70;99.90;;;;;;5095708;28;20214;-89
2021/01/19 02:24:42;;;;;;;13.17;6.40;;;5.70;99.90;;;;;;5095907;28;20190;-88
2021/01/19 02:27:19;;;;;;;9.90;5.37;;;5.70;99.90;;;;;;5099502;28;20170;-89
2021/01/19 02:30:16;;;;;;;15.47;7.00;;;5.70;99.90;;;;;;5098881;28;20206;-89
2021/01/19 02:33:03;;;;;;;14.03;6.63;;;5.70;99.90;;;;;;5071492;28;20247;-89
2021/01/19 02:35:40;;;;;;;11.07;6.37;;;5.70;99.90;;;;;;5099772;28;20265;-89
2021/01/19 02:38:29;;;;;;;13.20;6.27;;;5.60;99.90;;;;;;5098864;28;20167;-88
2021/01/19 02:40:56;;;;;;;13.77;6.17;;;5.60;99.90;;;;;;5098646;28;20178;-85
2021/01/19 02:43:25;;;;;;;16.07;6.73;;;5.70;99.90;;;;;;5116951;28;20166;-89
2021/01/19 02:45:52;;;;;;;12.03;6.70;;;5.70;99.90;;;;;;5098310;28;20182;-89
2021/01/19 02:48:18;;;;;;;14.87;6.63;;;5.70;99.90;;;;;;5098706;28;20163;-90
2021/01/19 02:50:43;;;;;;;12.10;6.43;;;5.60;99.90;;;;;;5117038;28;20254;-90
2021/01/19 02:53:10;;;;;;;14.17;6.70;;;5.60;99.90;;;;;;5098412;28;20171;-85
2021/01/19 02:55:36;;;;;;;15.30;7.20;;;5.60;99.90;;;;;;5098397;28;20182;-89
2021/01/19 02:58:34;;;;;;;14.20;6.43;;;5.60;99.90;;;;;;5116523;28;20535;-88
2021/01/19 03:01:06;;;;;;;14.73;6.87;;;5.60;99.90;;;;;;5098115;28;20193;-89
2021/01/19 03:03:36;;;;;;;12.80;6.47;;;5.60;99.90;;;;;;5098607;28;20167;-89
2021/01/19 03:06:30;;;;;;;13.30;6.57;;;5.60;99.90;;;;;;5098197;28;20615;-84
2021/01/19 03:08:58;;;;;;;12.37;6.67;;;5.60;99.90;;;;;;5094714;28;20207;-88
2021/01/19 03:11:25;;;;;;;10.37;6.63;;;5.60;99.90;;;;;;5098328;28;20211;-89
2021/01/19 03:13:51;;;;;;;15.80;7.00;;;5.60;99.90;;;;;;5097969;28;20174;-84
2021/01/19 03:16:19;;;;;;;13.73;7.17;;;5.60;99.90;;;;;;5098104;28;20179;-88
2021/01/19 03:18:46;;;;;;;11.10;6.73;;;5.60;99.90;;;;;;5098412;28;20175;-86
2021/01/19 03:21:12;;;;;;;10.83;6.33;;;5.60;99.90;;;;;;5097494;28;20548;-87
2021/01/19 03:23:39;;;;;;;13.30;6.60;;;5.60;99.90;;;;;;5097923;28;20191;-89
2021/01/19 03:26:06;;;;;;;11.33;6.53;;;5.60;99.90;;;;;;5097717;28;20550;-84
2021/01/19 03:28:32;;;;;;;12.13;6.53;;;5.60;99.90;;;;;;5098107;28;20198;-89
2021/01/19 03:30:58;;;;;;;16.73;6.60;;;5.60;99.90;;;;;;5097924;28;21049;-88
2021/01/19 03:33:24;;;;;;;13.37;7.73;;;5.60;99.90;;;;;;5116066;28;20163;-88
2021/01/19 03:35:50;;;;;;;13.30;6.90;;;5.70;99.90;;;;;;5097404;28;20649;-89
2021/01/19 03:38:16;;;;;;;12.63;7.40;;;5.70;99.90;;;;;;5097569;28;20185;-87
2021/01/19 03:40:41;;;;;;;12.93;7.03;;;5.70;99.90;;;;;;5097713;28;20174;-90
2021/01/19 03:43:08;;;;;;;13.77;7.27;;;5.70;99.90;;;;;;5097539;28;20267;-88
2021/01/19 03:45:34;;;;;;;14.70;6.87;;;5.80;99.90;;;;;;5097387;28;20208;-90
2021/01/19 03:48:00;;;;;;;12.80;7.20;;;5.70;99.90;;;;;;5097814;28;20171;-87
2021/01/19 03:50:28;;;;;;;10.83;6.60;;;5.80;99.90;;;;;;5097662;28;20682;-84
2021/01/19 03:52:53;;;;;;;12.80;7.27;;;5.80;99.90;;;;;;5097478;28;20167;-89
2021/01/19 03:55:19;;;;;;;11.20;6.57;;;5.80;99.90;;;;;;5097386;28;20659;-89
2021/01/19 03:57:45;;;;;;;12.77;6.77;;;5.80;99.90;;;;;;5096976;28;20182;-87
2021/01/19 04:00:13;;;;;;;10.63;6.90;;;5.80;99.90;;;;;;5097120;28;20661;-88
2021/01/19 04:02:39;;;;;;;13.50;6.63;;;5.90;99.90;;;;;;5097293;28;20209;-89
2021/01/19 04:05:06;;;;;;;11.80;6.77;;;5.90;99.90;;;;;;5098328;28;20178;-88
2021/01/19 04:07:33;;;;;;;15.20;6.57;;;5.90;99.90;;;;;;5096833;28;20182;-87
2021/01/19 04:09:58;;;;;;;13.10;5.93;;;5.90;99.90;;;;;;5097114;28;20292;-89
2021/01/19 04:12:24;;;;;;;12.33;6.77;;;5.90;99.90;;;;;;5098224;28;20545;-84
2021/01/19 04:14:50;;;;;;;9.67;5.60;;;6.00;99.90;;;;;;5097366;28;20171;-89
2021/01/19 04:17:15;;;;;;;17.53;6.33;;;5.90;99.90;;;;;;5097020;28;20206;-90
2021/01/19 04:19:41;;;;;;;11.43;6.10;;;6.00;99.90;;;;;;5097457;28;20178;-89
2021/01/19 04:22:07;;;;;;;11.07;6.23;;;6.00;99.90;;;;;;5097192;28;20178;-89
2021/01/19 04:24:33;;;;;;;9.63;5.73;;;6.00;99.90;;;;;;5097104;28;20186;-90
2021/01/19 04:26:59;;;;;;;11.07;5.57;;;6.00;99.90;;;;;;5096460;28;20174;-85
2021/01/19 04:29:24;;;;;;;13.03;5.67;;;6.00;99.90;;;;;;5096603;28;20214;-86
2021/01/19 04:31:50;;;;;;;16.53;6.03;;;6.10;99.90;;;;;;5114805;28;20167;-87
2021/01/19 04:34:16;;;;;;;10.43;5.30;;;6.10;99.90;;;;;;5096604;28;20182;-89
2021/01/19 04:36:41;;;;;;;14.77;5.60;;;6.20;99.90;;;;;;5096260;28;20174;-86
2021/01/19 04:39:07;;;;;;;10.83;4.97;;;6.10;99.90;;;;;;5096049;28;20183;-88
2021/01/19 04:41:35;;;;;;;11.13;5.10;;;6.20;99.90;;;;;;5096710;28;20171;-88
2021/01/19 04:44:03;;;;;;;14.87;5.67;;;6.10;99.90;;;;;;5097404;28;20173;-90
2021/01/19 04:46:29;;;;;;;11.73;5.00;;;6.20;99.90;;;;;;5096103;28;20619;-87
2021/01/19 04:48:54;;;;;;;10.50;5.13;;;6.20;99.90;;;;;;5096376;28;20631;-83
2021/01/19 04:51:26;;;;;;;10.37;5.83;;;6.40;99.90;;;;;;5096032;28;20205;-87
2021/01/19 04:54:08;;;;;;;13.00;5.00;;;6.20;99.90;;;;;;5096004;28;20198;-88
2021/01/19 04:56:38;;;;;;;10.90;5.23;;;6.30;99.90;;;;;;5096390;28;20174;-89
2021/01/19 04:59:13;;;;;;;13.90;5.53;;;6.30;99.90;;;;;;5096386;28;20251;-88
2021/01/19 05:02:11;;;;;;;12.27;4.47;;;6.30;99.90;;;;;;5096822;28;20173;-89
2021/01/19 05:04:47;;;;;;;11.47;4.87;;;6.20;99.90;;;;;;5095725;28;20174;-89
2021/01/19 05:07:33;;;;;;;11.33;4.53;;;6.20;99.90;;;;;;5114754;28;20181;-88
2021/01/19 05:10:06;;;;;;;16.73;5.43;;;6.20;99.90;;;;;;5095887;28;20313;-88
2021/01/19 05:12:43;;;;;;;11.67;4.20;;;6.20;99.90;;;;;;5114950;28;20176;-85
2021/01/19 05:15:14;;;;;;;15.03;4.60;;;6.20;99.90;;;;;;5096154;28;20175;-84
2021/01/19 05:17:41;;;;;;;12.20;4.87;;;6.30;99.90;;;;;;5096136;28;20158;-88
2021/01/19 05:20:09;;;;;;;10.03;4.17;;;6.30;99.90;;;;;;5096067;28;20591;-88
2021/01/19 05:22:34;;;;;;;11.07;4.43;;;6.30;99.90;;;;;;5095966;28;20187;-86
2021/01/19 05:25:00;;;;;;;9.57;4.40;;;6.30;99.90;;;;;;5096351;28;20241;-86
2021/01/19 05:27:26;;;;;;;14.27;4.30;;;6.40;99.90;;;;;;5097404;28;20178;-88
2021/01/19 05:30:05;;;;;;;9.93;4.40;;;6.40;99.90;;;;;;5096896;28;20199;-90
2021/01/19 05:32:49;;;;;;;8.73;4.50;;;6.40;99.90;;;;;;5095685;28;20254;-88
2021/01/19 05:35:17;;;;;;;8.20;4.33;;;6.30;99.90;;;;;;5096011;28;20605;-86
2021/01/19 05:38:03;;;;;;;12.70;5.17;;;6.30;99.90;;;;;;5096121;28;20175;-88
2021/01/19 05:40:29;;;;;;;12.70;4.47;;;6.30;99.90;;;;;;5095573;28;20209;-87
2021/01/19 05:42:55;;;;;;;8.93;4.10;;;6.30;99.90;;;;;;5095651;28;20171;-87
2021/01/19 05:45:21;;;;;;;11.60;4.33;;;6.30;99.90;;;;;;5095595;28;20163;-85
2021/01/19 05:47:47;;;;;;;10.73;4.03;;;6.30;99.90;;;;;;5095347;28;20540;-87
2021/01/19 05:50:13;;;;;;;9.70;3.93;;;6.30;99.90;;;;;;5095874;28;20209;-87
2021/01/19 05:52:39;;;;;;;13.33;4.97;;;6.40;99.90;;;;;;5096169;28;20174;-88
2021/01/19 05:55:06;;;;;;;7.93;3.67;;;6.40;99.90;;;;;;5095560;28;20198;-83
2021/01/19 05:57:31;;;;;;;10.90;3.80;;;6.40;99.90;;;;;;5096324;28;20265;-84
2021/01/19 06:00:05;;;;;;;9.80;4.23;;;6.40;99.90;;;;;;5099714;28;20195;-86
2021/01/19 06:02:43;;;;;;;9.80;4.00;;;6.40;99.90;;;;;;5099527;28;20166;-85
2021/01/19 06:05:16;;;;;;;10.40;4.57;;;6.40;99.90;;;;;;5098508;28;20266;-87
2021/01/19 06:07:44;;;;;;;13.23;4.10;;;6.40;99.90;;;;;;5103602;28;20163;-87
2021/01/19 06:10:20;;;;;;;8.50;4.03;;;6.40;99.90;;;;;;5098945;28;20674;-85
2021/01/19 06:12:46;;;;;;;11.40;3.73;;;6.40;99.90;;;;;;5099189;28;20174;-84
2021/01/19 06:15:12;;;;;;;8.63;3.53;;;6.40;99.90;;;;;;5098791;28;20181;-86
2021/01/19 06:17:38;;;;;;;14.00;3.40;;;6.50;99.90;;;;;;5099154;28;20221;-87
2021/01/19 06:20:06;;;;;;;6.20;3.30;;;6.50;99.90;;;;;;5098918;28;20174;-84
2021/01/19 06:22:32;;;;;;;11.33;3.23;;;6.50;99.90;;;;;;5136775;28;20189;-85
2021/01/19 06:24:59;;;;;;;11.63;3.30;;;6.50;99.90;;;;;;5108238;28;20182;-89
2021/01/19 06:27:25;;;;;;;13.17;5.20;;;6.50;99.90;;;;;;5116644;28;20170;-86
2021/01/19 06:30:02;;;;;;;10.60;3.90;;;6.50;99.90;;;;;;5097550;28;20277;-88
2021/01/19 06:32:30;;;;;;;9.93;3.20;;;6.50;99.90;;;;;;5098474;28;20193;-88
2021/01/19 06:34:56;;;;;;;9.03;3.57;;;6.50;99.90;;;;;;5098422;28;20170;-85
2021/01/19 06:37:27;;;;;;;9.30;3.40;;;6.50;99.90;;;;;;5098221;28;20167;-85
2021/01/19 06:39:58;;;;;;;10.53;3.10;;;6.50;99.90;;;;;;5089060;28;20172;-84
2021/01/19 06:42:28;;;;;;;10.30;3.70;;;6.60;99.90;;;;;;5094860;28;20167;-85
2021/01/19 06:44:56;;;;;;;6.50;2.90;;;6.60;99.90;;;;;;5076600;28;20175;-86
2021/01/19 06:47:23;;;;;;;8.20;3.17;;;6.50;99.90;;;;;;5078537;28;20271;-89
2021/01/19 06:49:51;;;;;;;7.37;3.30;;;6.50;99.90;;;;;;5089825;28;20206;-84
2021/01/19 06:52:18;;;;;;;9.53;3.13;;;6.50;99.90;;;;;;5098707;28;20195;-86
2021/01/19 06:54:53;;;;;;;6.93;2.90;;;6.50;99.90;;;;;;5107776;28;20168;-84
2021/01/19 06:57:32;;;;;;;7.30;3.60;;;6.50;99.90;;;;;;5077180;28;20194;-85
2021/01/19 07:00:20;;;;;;;9.70;3.60;;;6.50;99.90;;;;;;5077107;28;20254;-83
2021/01/19 07:02:49;;;;;;;5.80;2.97;;;6.50;99.90;;;;;;5077491;28;20179;-86
2021/01/19 07:05:17;;;;;;;8.17;3.03;;;6.50;99.90;;;;;;5077220;28;20175;-84
2021/01/19 07:07:44;;;;;;;10.57;3.30;;;6.50;99.90;;;;;;5081956;28;20174;-84
2021/01/19 07:10:19;;;;;;;9.40;2.80;;;6.50;99.90;;;;;;5096140;28;20236;-85
2021/01/19 07:13:05;;;;;;;5.67;2.30;;;6.50;99.90;;;;;;5088143;28;20179;-84
2021/01/19 07:15:58;;;;;;;6.60;2.70;;;6.60;99.90;;;;;;5076633;28;20184;-87
2021/01/19 07:18:33;;;;;;;5.70;2.30;;;6.70;99.90;;;;;;5076788;28;20371;-84
2021/01/19 07:21:06;;;;;;;5.37;2.70;;;6.70;99.90;;;;;;5086968;28;20185;-86
2021/01/19 07:23:44;;;;;;;8.27;2.60;;;6.70;99.90;;;;;;5106082;28;20203;-86
2021/01/19 07:26:20;;;;;;;6.33;2.30;;;6.70;99.90;;;;;;5112683;28;20635;-83
2021/01/19 07:28:48;;;;;;;5.03;2.20;;;6.70;99.90;;;;;;5114429;28;20209;-84
2021/01/19 07:31:19;;;;;;;7.97;2.80;;;6.70;99.90;;;;;;5112939;28;20261;-86
2021/01/19 07:33:49;;;;;;;6.93;2.77;;;6.70;99.90;;;;;;5113026;28;20213;-83
2021/01/19 07:36:16;;;;;;;5.23;2.37;;;6.80;99.90;;;;;;5098757;28;20174;-84
2021/01/19 07:38:42;;;;;;;6.27;2.20;;;6.70;99.90;;;;;;5114178;28;20540;-86
2021/01/19 07:41:08;;;;;;;6.07;2.00;;;6.80;99.90;;;;;;5113476;28;20183;-87
2021/01/19 07:43:36;;;;;;;7.10;2.23;;;6.80;99.90;;;;;;5103511;28;20934;-85
2021/01/19 07:46:02;;;;;;;6.30;2.10;;;6.80;99.90;;;;;;5096175;28;20182;-85
2021/01/19 07:48:37;;;;;;;6.27;1.83;;;6.80;99.90;;;;;;5095968;28;20258;-85
2021/01/19 07:51:13;;;;;;;6.07;1.80;;;6.80;99.90;;;;;;5105597;28;20186;-86
2021/01/19 07:53:52;;;;;;;8.30;2.13;;;6.80;99.90;;;;;;5113104;28;20171;-85
2021/01/19 07:56:30;;;;;;;5.03;2.17;;;6.80;99.90;;;;;;5112936;28;20171;-83
2021/01/19 07:58:57;;;;;;;3.57;2.23;;;6.90;99.90;;;;;;5112398;28;20973;-86
2021/01/19 08:01:27;;;;;;;5.43;2.07;;;7.00;99.90;;;;;;5112465;28;20171;-85
2021/01/19 08:03:54;;;;;;;5.77;2.10;;;6.90;99.90;;;;;;5112688;28;20190;-82
2021/01/19 08:06:32;;;;;;;4.07;2.20;;;7.00;99.90;;;;;;5112154;28;20167;-84
2021/01/19 08:09:14;;;;;;;4.47;2.10;;;6.90;99.90;;;;;;5100099;28;20301;-85
2021/01/19 08:11:44;;;;;;;6.40;3.00;;;7.00;99.90;;;;;;5113471;28;20248;-85
2021/01/19 08:14:11;;;;;;;4.30;2.17;;;6.90;99.90;;;;;;5094759;28;20174;-86
2021/01/19 08:16:38;;;;;;;4.17;2.13;;;7.00;99.90;;;;;;5094778;28;20509;-83
2021/01/19 08:19:14;;;;;;;10.67;2.70;;;7.00;99.90;;;;;;5095302;28;20316;-84
2021/01/19 08:21:50;;;;;;;5.17;2.50;;;7.00;99.90;;;;;;5094837;28;20174;-83
2021/01/19 08:24:20;;;;;;;6.13;2.50;;;7.00;99.90;;;;;;5094858;28;20190;-83
2021/01/19 08:26:46;;;;;;;5.20;2.10;;;7.00;99.90;;;;;;5094727;28;20170;-83
2021/01/19 08:29:12;;;;;;;6.03;2.80;;;7.00;99.90;;;;;;5112997;28;20211;-84
2021/01/19 08:31:38;;;;;;;5.60;2.70;;;7.10;99.90;;;;;;5112799;28;20204;-84
2021/01/19 08:34:07;;;;;;;5.07;2.77;;;7.10;99.90;;;;;;5094808;28;20177;-87
2021/01/19 08:36:35;;;;;;;5.27;2.20;;;7.10;99.90;;;;;;5094572;28;20170;-83
2021/01/19 08:39:05;;;;;;;4.63;2.37;;;7.10;99.90;;;;;;5094653;28;20270;-85
2021/01/19 08:41:31;;;;;;;4.03;2.20;;;7.10;99.90;;;;;;5094578;28;20171;-86
2021/01/19 08:44:02;;;;;;;3.90;2.47;;;7.30;99.90;;;;;;5095007;28;20235;-85
2021/01/19 08:46:32;;;;;;;5.67;2.00;;;7.30;99.90;;;;;;5094304;28;20171;-85
2021/01/19 08:49:04;;;;;;;5.20;2.50;;;7.30;99.90;;;;;;5112719;28;20647;-83
2021/01/19 08:51:30;;;;;;;6.53;2.47;;;7.40;99.90;;;;;;5094433;28;20185;-85
2021/01/19 08:53:56;;;;;;;5.30;2.30;;;7.40;99.90;;;;;;5093660;28;20167;-84
2021/01/19 08:56:24;;;;;;;5.80;2.43;;;7.40;99.90;;;;;;5112041;28;20206;-83
2021/01/19 08:58:50;;;;;;;5.83;2.97;;;7.50;99.90;;;;;;5094360;28;20199;-83
2021/01/19 09:01:17;;;;;;;5.10;2.43;;;7.50;99.90;;;;;;5094105;28;20163;-84
2021/01/19 09:03:53;;;;;;;4.37;2.50;;;7.60;99.90;;;;;;5094183;28;21206;-84
2021/01/19 09:06:20;;;;;;;5.97;3.13;;;7.60;99.90;;;;;;5094234;28;20175;-84
2021/01/19 09:08:49;;;;;;;5.00;2.37;;;7.70;99.90;;;;;;5093876;28;20263;-84
2021/01/19 09:11:15;;;;;;;6.03;2.53;;;7.70;99.90;;;;;;5092041;28;20179;-84
2021/01/19 09:13:41;;;;;;;4.67;2.57;;;7.70;99.90;;;;;;5111761;28;20271;-87
2021/01/19 09:16:07;;;;;;;5.47;3.20;;;7.80;99.90;;;;;;5112204;28;20182;-86
2021/01/19 09:18:33;;;;;;;5.93;2.57;;;7.90;99.90;;;;;;5093914;28;20171;-90
2021/01/19 09:21:10;;;;;;;6.33;2.27;;;7.90;99.90;;;;;;5090690;28;20171;-83
2021/01/19 09:23:37;;;;;;;4.43;2.33;;;7.80;99.90;;;;;;5090503;28;20842;-84
2021/01/19 09:26:05;;;;;;;3.93;2.40;;;7.80;99.90;;;;;;5091542;28;20163;-85
2021/01/19 09:28:35;;;;;;;4.73;2.50;;;7.90;99.90;;;;;;5093928;28;20178;-86
2021/01/19 09:31:16;;;;;;;5.17;2.77;;;8.00;99.90;;;;;;5094386;28;20528;-84
2021/01/19 09:33:43;;;;;;;6.47;2.43;;;8.00;99.90;;;;;;5112860;28;20261;-85
2021/01/19 09:36:10;;;;;;;4.13;2.20;;;8.00;99.90;;;;;;5117947;28;20198;-86
2021/01/19 09:38:36;;;;;;;5.30;2.47;;;8.00;99.90;;;;;;5115034;28;20174;-83
2021/01/19 09:41:04;;;;;;;4.97;2.30;;;8.10;99.90;;;;;;5115030;28;20265;-83
2021/01/19 09:43:30;;;;;;;6.20;2.27;;;8.10;99.90;;;;;;5103869;28;20186;-85
2021/01/19 09:46:02;;;;;;;4.67;2.13;;;8.20;99.90;;;;;;5116400;28;20183;-84
2021/01/19 09:48:30;;;;;;;4.97;2.07;;;8.20;99.90;;;;;;5097927;28;20228;-85
2021/01/19 09:51:05;;;;;;;3.70;1.80;;;8.20;99.90;;;;;;5108422;28;20193;-86
2021/01/19 09:53:33;;;;;;;5.70;2.47;;;8.20;99.90;;;;;;5115352;28;20650;-82
2021/01/19 09:56:17;;;;;;;5.17;2.10;;;8.20;99.90;;;;;;5115149;28;20179;-85
2021/01/19 09:58:43;;;;;;;4.50;2.20;;;8.20;99.90;;;;;;5116108;28;20174;-83
2021/01/19 10:01:20;;;;;;;4.87;2.40;;;8.30;99.90;;;;;;5116200;28;20295;-84
2021/01/19 10:03:47;;;;;;;3.33;2.27;;;8.40;99.90;;;;;;5115651;28;20175;-83
2021/01/19 10:06:22;;;;;;;3.73;2.30;;;8.50;99.90;;;;;;5114741;28;20265;-84
2021/01/19 10:08:52;;;;;;;5.47;1.90;;;8.40;99.90;;;;;;5094154;28;20206;-83
2021/01/19 10:11:55;;;;;;;3.13;2.07;;;8.50;99.90;;;;;;5097102;28;20175;-84
2021/01/19 10:14:20;;;;;;;3.90;1.80;;;8.50;99.90;;;;;;5099149;28;20186;-84
2021/01/19 10:16:50;;;;;;;3.27;1.90;;;8.50;99.90;;;;;;5115523;28;20194;-82
2021/01/19 10:19:25;;;;;;;1.90;1.70;;;8.60;99.90;;;;;;5096786;28;20175;-82
2021/01/19 10:21:56;;;;;;;3.70;1.80;;;8.60;99.90;;;;;;5096917;28;20162;-85
2021/01/19 10:24:23;;;;;;;2.13;1.67;;;8.70;99.90;;;;;;5115075;28;20187;-83
2021/01/19 10:26:58;;;;;;;3.50;1.80;;;8.80;99.90;;;;;;5115474;28;20679;-84
2021/01/19 10:29:24;;;;;;;5.13;2.03;;;8.80;99.90;;;;;;5094127;28;20210;-84
2021/01/19 10:31:59;;;;;;;2.60;1.53;;;8.70;99.90;;;;;;5096907;28;20166;-83
2021/01/19 10:34:27;;;;;;;2.80;1.60;;;8.70;99.90;;;;;;5096541;28;20174;-84
2021/01/19 10:36:55;;;;;;;3.70;1.93;;;8.70;99.90;;;;;;5096634;28;20167;-82
2021/01/19 10:39:22;;;;;;;3.47;2.20;;;8.80;99.90;;;;;;5096750;28;20264;-82
2021/01/19 10:41:51;;;;;;;3.17;1.80;;;8.80;99.90;;;;;;5096833;28;20179;-88
2021/01/19 10:44:17;;;;;;;3.77;2.00;;;8.80;99.90;;;;;;5113254;28;20163;-82
2021/01/19 10:46:44;;;;;;;2.70;1.70;;;8.80;99.90;;;;;;5115991;28;20205;-86
2021/01/19 10:49:16;;;;;;;3.30;2.00;;;8.80;99.90;;;;;;5115023;28;20198;-87
2021/01/19 10:51:44;;;;;;;4.33;2.00;;;8.80;99.90;;;;;;5113975;28;20186;-84
2021/01/19 10:54:11;;;;;;;5.17;2.30;;;8.80;99.90;;;;;;5113657;28;20764;-86
2021/01/19 10:56:39;;;;;;;4.30;2.47;;;8.80;99.90;;;;;;5113226;28;20177;-81
2021/01/19 10:59:04;;;;;;;3.73;2.30;;;8.80;99.90;;;;;;5112993;28;20261;-82
2021/01/19 11:01:33;;;;;;;4.23;2.50;;;8.80;99.90;;;;;;5113847;28;20324;-83
2021/01/19 11:03:59;;;;;;;4.37;2.30;;;8.90;99.90;;;;;;5104463;28;20204;-82
2021/01/19 11:06:37;;;;;;;3.40;2.53;;;8.80;99.90;;;;;;5114856;28;20246;-84
2021/01/19 11:09:04;;;;;;;4.43;2.50;;;8.80;99.90;;;;;;5096276;28;20202;-84
2021/01/19 11:11:30;;;;;;;4.70;2.73;;;8.90;99.90;;;;;;5096243;28;20657;-84
2021/01/19 11:14:02;;;;;;;3.53;2.40;;;8.80;99.90;;;;;;5096229;28;20262;-83
2021/01/19 11:16:33;;;;;;;3.93;2.40;;;8.90;99.90;;;;;;5096969;28;20615;-87
2021/01/19 11:19:00;;;;;;;4.80;2.50;;;8.90;99.90;;;;;;5096305;28;20517;-82
2021/01/19 11:21:26;;;;;;;6.00;2.77;;;8.90;99.90;;;;;;5095573;28;20171;-82
2021/01/19 11:23:53;;;;;;;3.57;2.40;;;8.90;99.90;;;;;;5095729;28;20198;-85
2021/01/19 11:26:18;;;;;;;3.20;2.57;;;8.90;99.90;;;;;;5092497;28;20257;-85
2021/01/19 11:28:44;;;;;;;5.40;2.60;;;8.90;99.90;;;;;;5092957;28;20234;-84
2021/01/19 11:31:10;;;;;;;5.57;2.70;;;8.80;99.90;;;;;;5098346;28;20190;-85
2021/01/19 11:33:36;;;;;;;3.40;2.67;;;8.80;99.90;;;;;;5093779;28;20171;-85
2021/01/19 11:36:01;;;;;;;6.63;3.10;;;8.80;99.90;;;;;;5093380;28;20180;-85
2021/01/19 11:38:27;;;;;;;4.43;2.90;;;8.80;99.90;;;;;;5101557;28;20182;-86
2021/01/19 11:40:53;;;;;;;4.53;2.80;;;8.80;99.90;;;;;;5114482;28;20661;-85
2021/01/19 11:43:18;;;;;;;5.43;3.33;;;8.80;99.90;;;;;;5114296;28;20167;-86
2021/01/19 11:45:44;;;;;;;6.20;3.23;;;8.80;99.90;;;;;;5114375;28;20239;-84
2021/01/19 11:48:09;;;;;;;4.33;3.50;;;8.80;99.90;;;;;;5113198;28;20175;-84
2021/01/19 11:50:35;;;;;;;5.07;3.53;;;8.80;99.90;;;;;;5112639;28;20207;-85
2021/01/19 11:53:01;;;;;;;5.13;3.73;;;8.80;99.90;;;;;;5112775;28;20171;-83
2021/01/19 11:55:26;;;;;;;4.27;3.30;;;8.70;99.90;;;;;;5112176;28;20179;-87
2021/01/19 11:57:52;;;;;;;6.93;3.77;;;8.70;99.90;;;;;;5085341;28;20209;-83
2021/01/19 12:00:18;;;;;;;4.13;3.73;;;8.70;99.90;;;;;;5093476;28;20253;-82
2021/01/19 12:02:43;;;;;;;5.77;3.97;;;8.70;99.90;;;;;;5075492;28;20172;-86
2021/01/19 12:05:10;;;;;;;4.73;3.20;;;8.70;99.90;;;;;;5095478;28;20215;-87
2021/01/19 12:07:40;;;;;;;5.57;4.00;;;8.80;99.90;;;;;;5097300;28;20178;-84
2021/01/19 12:10:07;;;;;;;6.57;4.03;;;8.90;99.90;;;;;;5095423;28;20222;-85
2021/01/19 12:12:35;;;;;;;5.10;3.63;;;9.00;99.90;;;;;;5096804;28;20170;-82
2021/01/19 12:15:02;;;;;;;3.83;3.13;;;9.10;99.90;;;;;;5097918;28;20167;-88
2021/01/19 12:17:27;;;;;;;5.40;3.63;;;9.10;99.90;;;;;;5095416;28;20223;-84
2021/01/19 12:19:53;;;;;;;4.57;2.90;;;9.00;99.90;;;;;;5095249;28;20581;-83
2021/01/19 12:22:19;;;;;;;6.77;3.93;;;9.00;99.90;;;;;;5113399;28;20171;-81
2021/01/19 12:24:44;;;;;;;5.17;3.87;;;9.00;99.90;;;;;;5095912;28;20209;-86
2021/01/19 12:27:10;;;;;;;5.80;4.03;;;9.00;99.90;;;;;;5114381;28;20639;-85
2021/01/19 12:29:36;;;;;;;6.03;3.77;;;9.10;99.90;;;;;;5093881;28;20195;-83
2021/01/19 12:32:04;;;;;;;4.70;4.00;;;9.00;99.90;;;;;;5095016;28;20235;-87
2021/01/19 12:34:30;;;;;;;6.57;4.27;;;9.00;99.90;;;;;;5094781;28;20170;-86
2021/01/19 12:36:56;;;;;;;5.53;4.23;;;9.10;99.90;;;;;;5095471;28;20178;-83
2021/01/19 12:39:22;;;;;;;6.10;5.10;;;9.00;99.90;;;;;;5112952;28;20563;-87
2021/01/19 12:41:47;;;;;;;7.43;4.80;;;9.00;99.90;;;;;;5109358;28;20190;-84
2021/01/19 12:44:14;;;;;;;4.77;4.30;;;9.00;99.90;;;;;;5112851;28;20249;-85
2021/01/19 12:46:39;;;;;;;6.17;5.13;;;9.10;99.90;;;;;;5092835;28;20178;-83
2021/01/19 12:49:06;;;;;;;6.20;5.00;;;9.10;99.90;;;;;;5092965;28;20201;-86
2021/01/19 12:51:31;;;;;;;7.23;5.17;;;9.10;99.90;;;;;;5131380;27;20219;-86
2021/01/19 12:53:57;;;;;;;9.37;5.80;;;9.10;99.90;;;;;;5115192;27;20244;-84
2021/01/19 12:56:23;;;;;;;8.73;5.20;;;9.10;99.90;;;;;;5115235;27;20169;-84
2021/01/19 12:58:49;;;;;;;9.60;5.60;;;9.10;99.90;;;;;;5114671;27;20261;-85
2021/01/19 13:01:15;;;;;;;6.27;4.90;;;9.20;99.90;;;;;;5115196;27;20169;-84
2021/01/19 13:03:41;;;;;;;7.83;5.30;;;9.10;99.90;;;;;;5114417;27;20178;-85